Time;durP1;ratioP1;P1;durP2;ratioP2;P2;SDS_P1;SDS_P2;PMS_P1;PMS_P2;Temp;Humidity;BMP_temperature;BMP_pressure;BME280_temperature;BME280_humidity;BME280_pressure;Samples;Min_cycle;Max_cycle;Signal;HPM_P1;HPM_P2
2022/11/15 00:02:04;;;;;;;35.95;17.73;;;;;;;;;;4951568;28;20129;-84
2022/11/15 00:04:30;;;;;;;33.75;17.50;;;;;;;;;;4938850;28;20042;-85
2022/11/15 00:06:55;;;;;;;33.97;17.90;;;;;;;;;;4940212;28;20353;-84
2022/11/15 00:09:20;;;;;;;34.35;18.25;;;;;;;;;;4938829;28;20046;-84
2022/11/15 00:11:46;;;;;;;34.88;18.77;;;;;;;;;;4942026;28;20031;-83
2022/11/15 00:14:11;;;;;;;33.22;18.27;;;;;;;;;;4940283;28;20039;-83
2022/11/15 00:16:37;;;;;;;37.40;19.38;;;;;;;;;;4951495;28;20058;-83
2022/11/15 00:19:02;;;;;;;36.28;18.83;;;;;;;;;;4954957;28;20031;-84
2022/11/15 00:21:28;;;;;;;34.20;17.88;;;;;;;;;;4954764;28;20081;-84
2022/11/15 00:23:53;;;;;;;32.75;17.08;;;;;;;;;;4940656;28;20042;-83
2022/11/15 00:26:18;;;;;;;33.47;18.67;;;;;;;;;;4938572;28;20030;-84
2022/11/15 00:28:44;;;;;;;35.90;18.35;;;;;;;;;;4935748;28;20043;-83
2022/11/15 00:31:13;;;;;;;34.90;17.92;;;;;;;;;;4928708;28;20042;-84
2022/11/15 00:33:38;;;;;;;33.92;17.55;;;;;;;;;;4953097;28;20062;-83
2022/11/15 00:36:07;;;;;;;33.65;18.58;;;;;;;;;;4968202;28;20097;-83
2022/11/15 00:38:37;;;;;;;36.85;18.77;;;;;;;;;;4973653;28;20037;-83
2022/11/15 00:41:05;;;;;;;31.85;17.67;;;;;;;;;;5002029;28;20069;-83
2022/11/15 00:43:32;;;;;;;33.03;18.25;;;;;;;;;;5026740;28;20033;-83
2022/11/15 00:45:57;;;;;;;36.72;18.40;;;;;;;;;;5028801;28;20029;-84
2022/11/15 00:48:23;;;;;;;34.60;18.50;;;;;;;;;;5028617;28;20047;-83
2022/11/15 00:50:49;;;;;;;34.35;18.15;;;;;;;;;;5027760;28;20040;-84
2022/11/15 00:53:14;;;;;;;37.65;19.13;;;;;;;;;;5026205;28;20464;-84
2022/11/15 00:55:40;;;;;;;33.88;19.92;;;;;;;;;;5029054;28;20116;-84
2022/11/15 00:58:05;;;;;;;33.90;18.10;;;;;;;;;;5010395;28;20768;-84
2022/11/15 01:00:31;;;;;;;39.45;21.05;;;;;;;;;;5030026;28;20048;-83
2022/11/15 01:02:56;;;;;;;36.08;19.63;;;;;;;;;;5032108;28;20036;-84
2022/11/15 01:05:22;;;;;;;37.85;19.05;;;;;;;;;;5013446;28;20498;-85
2022/11/15 01:07:52;;;;;;;36.30;19.20;;;;;;;;;;5014125;28;20124;-83
2022/11/15 01:10:17;;;;;;;35.45;18.73;;;;;;;;;;5030027;28;20060;-83
2022/11/15 01:12:43;;;;;;;39.40;18.92;;;;;;;;;;5011944;28;20057;-83
2022/11/15 01:15:08;;;;;;;35.40;18.88;;;;;;;;;;5012276;28;20086;-84
2022/11/15 01:17:34;;;;;;;36.85;18.85;;;;;;;;;;5028614;28;20044;-84
2022/11/15 01:19:59;;;;;;;38.03;19.08;;;;;;;;;;5028561;28;20393;-83
2022/11/15 01:22:24;;;;;;;38.38;19.30;;;;;;;;;;5030369;28;20037;-83
2022/11/15 01:24:50;;;;;;;38.13;19.50;;;;;;;;;;5028085;28;20370;-83
2022/11/15 01:27:16;;;;;;;39.03;19.58;;;;;;;;;;5011793;28;20040;-83
2022/11/15 01:29:41;;;;;;;36.92;18.70;;;;;;;;;;5013317;28;20035;-83
2022/11/15 01:32:07;;;;;;;37.25;19.83;;;;;;;;;;5011012;28;20029;-84
2022/11/15 01:34:32;;;;;;;38.75;19.80;;;;;;;;;;5018593;28;20056;-83
2022/11/15 01:37:01;;;;;;;41.53;20.38;;;;;;;;;;5026837;28;20049;-83
2022/11/15 01:39:26;;;;;;;40.85;20.83;;;;;;;;;;5027326;28;20068;-86
2022/11/15 01:41:54;;;;;;;39.30;19.55;;;;;;;;;;5013302;28;20709;-84
2022/11/15 01:44:31;;;;;;;38.95;20.30;;;;;;;;;;5013194;28;20072;-84
2022/11/15 01:46:58;;;;;;;36.90;19.23;;;;;;;;;;5041380;28;20140;-84
2022/11/15 01:49:24;;;;;;;36.53;19.58;;;;;;;;;;5014036;28;20512;-83
2022/11/15 01:51:49;;;;;;;36.42;19.45;;;;;;;;;;5013006;28;21169;-84
2022/11/15 01:54:17;;;;;;;39.53;20.73;;;;;;;;;;5027853;28;20033;-83
2022/11/15 01:56:50;;;;;;;34.53;18.45;;;;;;;;;;5011117;28;20079;-84
2022/11/15 01:59:15;;;;;;;37.33;18.48;;;;;;;;;;5008920;28;20038;-84
2022/11/15 02:01:41;;;;;;;37.10;19.20;;;;;;;;;;5013141;28;20029;-85
2022/11/15 02:04:10;;;;;;;36.88;19.17;;;;;;;;;;5025837;28;20072;-85
2022/11/15 02:06:36;;;;;;;34.85;19.02;;;;;;;;;;5008414;28;20116;-85
2022/11/15 02:09:04;;;;;;;35.13;18.13;;;;;;;;;;5004503;28;20152;-84
2022/11/15 02:11:30;;;;;;;39.47;19.30;;;;;;;;;;4994311;28;20356;-84
2022/11/15 02:13:57;;;;;;;37.30;19.42;;;;;;;;;;4991053;28;20030;-84
2022/11/15 02:16:53;;;;;;;38.55;19.10;;;;;;;;;;5003409;28;20042;-84
2022/11/15 02:19:40;;;;;;;37.95;19.45;;;;;;;;;;5026520;28;20041;-84
2022/11/15 02:22:14;;;;;;;39.10;20.20;;;;;;;;;;5010460;28;20041;-84
2022/11/15 02:25:14;;;;;;;43.88;20.65;;;;;;;;;;5006864;28;20046;-84
2022/11/15 02:28:30;;;;;;;37.70;18.80;;;;;;;;;;5025339;28;20042;-84
2022/11/15 02:31:06;;;;;;;36.63;18.83;;;;;;;;;;4996674;28;20060;-83
2022/11/15 02:33:43;;;;;;;40.38;20.15;;;;;;;;;;5007124;28;20052;-83
2022/11/15 02:36:13;;;;;;;35.33;19.23;;;;;;;;;;5027727;28;20044;-84
2022/11/15 02:38:52;;;;;;;37.40;19.08;;;;;;;;;;5013527;28;20025;-85
2022/11/15 02:41:30;;;;;;;38.85;19.58;;;;;;;;;;5013337;28;20481;-84
2022/11/15 02:43:58;;;;;;;40.63;19.95;;;;;;;;;;5028601;28;20120;-83
2022/11/15 02:49:31;;;;;;;37.80;18.73;;;;;;;;;;5032830;28;20049;-84
2022/11/15 02:51:57;;;;;;;39.35;19.63;;;;;;;;;;5013753;28;20026;-84
2022/11/15 02:54:29;;;;;;;34.83;18.80;;;;;;;;;;5011983;28;20214;-84
2022/11/15 02:56:58;;;;;;;36.75;19.08;;;;;;;;;;5015164;28;20037;-83
2022/11/15 02:59:44;;;;;;;40.08;19.48;;;;;;;;;;5012600;28;20108;-84
2022/11/15 03:02:16;;;;;;;37.22;19.50;;;;;;;;;;5007301;28;20057;-84
2022/11/15 03:05:00;;;;;;;37.38;18.92;;;;;;;;;;5018235;28;20040;-84
2022/11/15 03:07:31;;;;;;;37.47;18.30;;;;;;;;;;5008414;28;20034;-83
2022/11/15 03:10:12;;;;;;;37.83;18.95;;;;;;;;;;4996604;28;20412;-83
2022/11/15 03:12:51;;;;;;;37.75;19.88;;;;;;;;;;5010246;28;20041;-83
2022/11/15 03:15:30;;;;;;;38.70;18.95;;;;;;;;;;5032255;28;20032;-84
2022/11/15 03:18:11;;;;;;;41.85;19.73;;;;;;;;;;5004251;28;20042;-84
2022/11/15 03:20:37;;;;;;;35.50;17.63;;;;;;;;;;5030651;28;20045;-85
2022/11/15 03:23:06;;;;;;;36.50;18.83;;;;;;;;;;5015070;28;20037;-85
2022/11/15 03:25:33;;;;;;;36.42;19.15;;;;;;;;;;5030970;28;20033;-84
2022/11/15 03:28:01;;;;;;;34.85;18.45;;;;;;;;;;5015481;28;20036;-85
2022/11/15 03:30:27;;;;;;;34.80;18.35;;;;;;;;;;5027415;28;20029;-84
2022/11/15 03:32:56;;;;;;;36.78;18.85;;;;;;;;;;5033670;28;20388;-84
2022/11/15 03:35:24;;;;;;;39.60;19.08;;;;;;;;;;5030984;28;20116;-84
2022/11/15 03:38:14;;;;;;;37.08;19.15;;;;;;;;;;5015389;28;20385;-84
2022/11/15 03:40:41;;;;;;;36.03;19.20;;;;;;;;;;5017330;28;20496;-85
2022/11/15 03:43:25;;;;;;;36.30;19.55;;;;;;;;;;5018543;28;20484;-84
2022/11/15 03:45:55;;;;;;;37.00;18.88;;;;;;;;;;5031257;28;20048;-84
2022/11/15 03:48:27;;;;;;;37.00;18.90;;;;;;;;;;5028382;28;20497;-83
2022/11/15 03:50:53;;;;;;;33.88;17.95;;;;;;;;;;5026112;28;20033;-82
2022/11/15 03:53:18;;;;;;;35.72;18.55;;;;;;;;;;5029981;28;20053;-84
2022/11/15 03:55:44;;;;;;;37.83;18.15;;;;;;;;;;5012122;28;20068;-83
2022/11/15 03:58:09;;;;;;;35.38;18.75;;;;;;;;;;5043455;28;20069;-84
2022/11/15 04:00:35;;;;;;;35.97;18.25;;;;;;;;;;5019649;28;20531;-83
2022/11/15 04:03:00;;;;;;;37.78;18.92;;;;;;;;;;5033328;28;20033;-83
2022/11/15 04:05:25;;;;;;;41.90;19.88;;;;;;;;;;5046104;28;20041;-83
2022/11/15 04:07:51;;;;;;;35.88;18.17;;;;;;;;;;5027232;28;20380;-84
2022/11/15 04:10:16;;;;;;;37.63;18.58;;;;;;;;;;5030722;28;20059;-84
2022/11/15 04:12:46;;;;;;;38.20;19.55;;;;;;;;;;5032131;28;20033;-84
2022/11/15 04:15:16;;;;;;;38.05;18.67;;;;;;;;;;5015301;28;20034;-86
2022/11/15 04:17:47;;;;;;;38.38;18.65;;;;;;;;;;4997432;28;20509;-84
2022/11/15 04:26:06;;;;;;;36.28;18.60;;;;;;;;;;5010832;28;20033;-84
2022/11/15 04:28:32;;;;;;;38.33;18.65;;;;;;;;;;5008475;28;20496;-91
2022/11/15 04:30:58;;;;;;;37.75;18.45;;;;;;;;;;4993882;28;20030;-92
2022/11/15 04:33:23;;;;;;;37.20;19.80;;;;;;;;;;5004978;28;20139;-92
2022/11/15 04:38:34;;;;;;;38.05;18.15;;;;;;;;;;5009044;28;20040;-91
2022/11/15 04:40:59;;;;;;;35.50;18.92;;;;;;;;;;5021604;28;20034;-91
2022/11/15 04:43:25;;;;;;;36.95;19.38;;;;;;;;;;4991466;28;20109;-89
2022/11/15 04:45:50;;;;;;;36.70;19.17;;;;;;;;;;4999503;28;20030;-90
2022/11/15 04:48:16;;;;;;;34.97;18.88;;;;;;;;;;5015980;28;20044;-91
2022/11/15 04:50:41;;;;;;;37.13;18.50;;;;;;;;;;5010159;28;20045;-92
2022/11/15 04:53:07;;;;;;;36.22;18.63;;;;;;;;;;5011996;28;20040;-90
2022/11/15 04:55:32;;;;;;;36.30;18.85;;;;;;;;;;5011119;28;20033;-90
2022/11/15 04:57:59;;;;;;;33.53;17.98;;;;;;;;;;5010954;28;20099;-91
2022/11/15 05:00:25;;;;;;;42.17;19.45;;;;;;;;;;5010932;28;20519;-92
2022/11/15 05:05:35;;;;;;;39.22;19.45;;;;;;;;;;5026617;28;20083;-85
2022/11/15 05:08:00;;;;;;;38.95;20.13;;;;;;;;;;5027358;28;20492;-83
2022/11/15 05:10:26;;;;;;;38.13;18.33;;;;;;;;;;5012137;28;20071;-84
2022/11/15 05:12:51;;;;;;;34.13;17.05;;;;;;;;;;5026790;28;20042;-83
2022/11/15 05:15:16;;;;;;;35.75;18.30;;;;;;;;;;5009755;28;20400;-85
2022/11/15 05:17:42;;;;;;;38.50;19.27;;;;;;;;;;5010879;28;20572;-84
2022/11/15 05:20:08;;;;;;;36.80;18.73;;;;;;;;;;5013448;28;20036;-85
2022/11/15 05:22:33;;;;;;;35.63;18.77;;;;;;;;;;5011419;28;20079;-84
2022/11/15 05:24:59;;;;;;;36.85;18.17;;;;;;;;;;4997653;28;20429;-89
2022/11/15 05:27:24;;;;;;;37.67;17.83;;;;;;;;;;5026891;28;20072;-89
2022/11/15 05:29:49;;;;;;;35.30;18.13;;;;;;;;;;5013278;28;20032;-89
2022/11/15 05:32:19;;;;;;;41.42;18.90;;;;;;;;;;5012559;28;20036;-81
2022/11/15 05:34:45;;;;;;;32.97;17.52;;;;;;;;;;5014227;28;20392;-82
2022/11/15 05:37:10;;;;;;;36.53;17.98;;;;;;;;;;5014822;28;20029;-82
2022/11/15 05:39:36;;;;;;;35.53;17.10;;;;;;;;;;5010009;28;20198;-83
2022/11/15 05:42:12;;;;;;;34.58;17.00;;;;;;;;;;5014493;28;20037;-82
2022/11/15 05:44:39;;;;;;;39.58;19.45;;;;;;;;;;4999386;28;20123;-82
2022/11/15 05:47:06;;;;;;;35.53;18.17;;;;;;;;;;5005905;28;20183;-82
2022/11/15 05:49:35;;;;;;;36.85;17.80;;;;;;;;;;5011336;28;20474;-82
2022/11/15 05:52:03;;;;;;;36.05;18.42;;;;;;;;;;5042213;28;20389;-82
2022/11/15 05:54:28;;;;;;;36.22;17.50;;;;;;;;;;5015601;28;20036;-81
2022/11/15 05:56:55;;;;;;;35.08;18.60;;;;;;;;;;5014364;28;20026;-82
2022/11/15 05:59:21;;;;;;;36.13;18.13;;;;;;;;;;5011676;28;20055;-82
2022/11/15 06:01:46;;;;;;;32.00;17.75;;;;;;;;;;5009884;28;20037;-84
2022/11/15 06:04:11;;;;;;;38.17;18.70;;;;;;;;;;5029354;28;20045;-82
2022/11/15 06:06:37;;;;;;;38.85;17.83;;;;;;;;;;5019676;28;20512;-82
2022/11/15 06:09:02;;;;;;;35.17;17.13;;;;;;;;;;5014037;28;20052;-83
2022/11/15 06:11:28;;;;;;;34.28;17.40;;;;;;;;;;5012207;28;20072;-82
2022/11/15 06:13:54;;;;;;;32.72;17.52;;;;;;;;;;5040512;28;20025;-82
2022/11/15 06:16:19;;;;;;;34.40;17.80;;;;;;;;;;5013398;28;20043;-84
2022/11/15 06:18:44;;;;;;;33.45;17.52;;;;;;;;;;5016012;28;20042;-85
2022/11/15 06:21:10;;;;;;;33.45;17.58;;;;;;;;;;5029398;28;20033;-85
2022/11/15 06:23:36;;;;;;;38.42;17.77;;;;;;;;;;5032404;28;20048;-83
2022/11/15 06:26:02;;;;;;;32.15;17.10;;;;;;;;;;5028648;28;20033;-83
2022/11/15 06:28:29;;;;;;;34.60;17.95;;;;;;;;;;5013106;28;20158;-83
2022/11/15 06:30:54;;;;;;;33.80;16.43;;;;;;;;;;5013126;28;20036;-83
2022/11/15 06:33:20;;;;;;;35.92;18.13;;;;;;;;;;5015977;28;20034;-88
2022/11/15 06:35:45;;;;;;;30.88;16.88;;;;;;;;;;5032646;28;20055;-88
2022/11/15 06:38:13;;;;;;;33.58;17.27;;;;;;;;;;5029650;28;20179;-87
2022/11/15 06:40:39;;;;;;;34.30;17.70;;;;;;;;;;5015365;28;20451;-87
2022/11/15 06:43:05;;;;;;;31.02;15.77;;;;;;;;;;5013884;28;20029;-87
2022/11/15 06:45:31;;;;;;;37.50;18.80;;;;;;;;;;5003536;28;20025;-88
2022/11/15 06:47:57;;;;;;;37.05;18.23;;;;;;;;;;5013439;28;20373;-88
2022/11/15 06:50:23;;;;;;;35.83;18.98;;;;;;;;;;5001098;28;20061;-88
2022/11/15 06:52:48;;;;;;;34.90;18.60;;;;;;;;;;5015347;28;20045;-87
2022/11/15 06:55:13;;;;;;;36.35;18.60;;;;;;;;;;5016448;28;20049;-87
2022/11/15 06:57:52;;;;;;;36.15;18.52;;;;;;;;;;5012105;28;20040;-87
2022/11/15 07:00:19;;;;;;;36.33;18.67;;;;;;;;;;5013425;28;20468;-87
2022/11/15 07:02:44;;;;;;;39.17;18.88;;;;;;;;;;5032306;28;20496;-87
2022/11/15 07:05:10;;;;;;;39.22;19.35;;;;;;;;;;5005299;28;20114;-88
2022/11/15 07:07:35;;;;;;;38.42;19.17;;;;;;;;;;5017193;28;20366;-88
2022/11/15 07:10:01;;;;;;;35.42;18.50;;;;;;;;;;5019672;28;20455;-87
2022/11/15 07:12:26;;;;;;;36.38;18.35;;;;;;;;;;5016467;28;20042;-87
2022/11/15 07:14:51;;;;;;;38.42;19.08;;;;;;;;;;5016226;28;20034;-89
2022/11/15 07:17:17;;;;;;;37.78;19.15;;;;;;;;;;4996719;28;20072;-91
2022/11/15 07:19:42;;;;;;;37.33;20.35;;;;;;;;;;5018113;28;20041;-91
2022/11/15 07:22:08;;;;;;;34.33;17.85;;;;;;;;;;4999585;28;20489;-89
2022/11/15 07:24:33;;;;;;;35.53;18.55;;;;;;;;;;5025851;28;20048;-90
2022/11/15 07:26:59;;;;;;;34.80;19.23;;;;;;;;;;5008698;28;20033;-91
2022/11/15 07:29:24;;;;;;;35.30;18.08;;;;;;;;;;4990722;28;20041;-90
2022/11/15 07:31:50;;;;;;;34.25;18.05;;;;;;;;;;5008953;28;20030;-90
2022/11/15 07:34:15;;;;;;;35.58;17.88;;;;;;;;;;5019423;28;20037;-90
2022/11/15 07:36:42;;;;;;;31.77;16.98;;;;;;;;;;5013583;28;20088;-91
2022/11/15 07:39:07;;;;;;;35.15;19.52;;;;;;;;;;5005234;28;20040;-90
2022/11/15 07:41:32;;;;;;;37.38;18.10;;;;;;;;;;5014991;28;20041;-91
2022/11/15 07:43:58;;;;;;;36.92;18.42;;;;;;;;;;5015821;28;20193;-89
2022/11/15 07:46:23;;;;;;;35.67;18.75;;;;;;;;;;5016145;28;20040;-91
2022/11/15 07:48:54;;;;;;;35.28;18.50;;;;;;;;;;5015581;28;20057;-90
2022/11/15 07:51:20;;;;;;;34.17;18.52;;;;;;;;;;5009487;28;20104;-92
2022/11/15 07:53:46;;;;;;;37.08;19.05;;;;;;;;;;5016103;28;20037;-90
2022/11/15 07:56:12;;;;;;;36.28;18.30;;;;;;;;;;5017391;28;20527;-88
2022/11/15 07:58:37;;;;;;;38.50;19.77;;;;;;;;;;5017275;28;20488;-90
2022/11/15 08:01:07;;;;;;;35.75;19.30;;;;;;;;;;5027649;28;20045;-90
2022/11/15 08:03:33;;;;;;;37.25;18.88;;;;;;;;;;5029155;28;20033;-93
2022/11/15 08:05:58;;;;;;;36.15;17.58;;;;;;;;;;5031395;28;20155;-87
2022/11/15 08:08:24;;;;;;;33.15;17.95;;;;;;;;;;5025549;28;20381;-88
2022/11/15 08:10:49;;;;;;;33.33;17.70;;;;;;;;;;5011017;28;20072;-90
2022/11/15 08:13:14;;;;;;;33.78;17.88;;;;;;;;;;5029682;28;20374;-89
2022/11/15 08:15:40;;;;;;;29.38;16.55;;;;;;;;;;5015991;28;20164;-90
2022/11/15 08:18:11;;;;;;;35.00;18.27;;;;;;;;;;5015286;28;20045;-89
2022/11/15 08:20:36;;;;;;;34.47;18.13;;;;;;;;;;5033066;28;20036;-89
2022/11/15 08:23:03;;;;;;;34.20;17.67;;;;;;;;;;5028114;28;20748;-93
2022/11/15 08:25:30;;;;;;;51.28;25.88;;;;;;;;;;5016300;28;20095;-91
2022/11/15 08:27:58;;;;;;;35.38;19.45;;;;;;;;;;5015094;28;20035;-88
2022/11/15 08:30:24;;;;;;;30.38;16.08;;;;;;;;;;5016098;28;20042;-89
2022/11/15 08:32:50;;;;;;;29.48;17.17;;;;;;;;;;5031807;28;20037;-89
2022/11/15 08:35:16;;;;;;;29.48;16.70;;;;;;;;;;5014990;28;20048;-89
2022/11/15 08:37:42;;;;;;;27.77;16.25;;;;;;;;;;5011471;28;20040;-90
2022/11/15 08:40:07;;;;;;;24.92;15.32;;;;;;;;;;5012715;28;20064;-91
2022/11/15 08:42:33;;;;;;;24.90;15.02;;;;;;;;;;5025606;28;20059;-89
2022/11/15 08:44:58;;;;;;;26.40;15.82;;;;;;;;;;5013489;28;20040;-90
2022/11/15 08:47:24;;;;;;;27.58;15.32;;;;;;;;;;5012987;28;20050;-92
2022/11/15 08:49:50;;;;;;;25.27;14.32;;;;;;;;;;5029180;28;20029;-91
2022/11/15 08:52:15;;;;;;;23.48;13.50;;;;;;;;;;5015251;28;20420;-92
2022/11/15 08:54:40;;;;;;;22.75;13.57;;;;;;;;;;5016023;28;20041;-93
2022/11/15 08:57:06;;;;;;;20.92;12.38;;;;;;;;;;5027309;28;20061;-90
2022/11/15 08:59:31;;;;;;;22.80;13.55;;;;;;;;;;5013875;28;20035;-90
2022/11/15 09:01:57;;;;;;;21.63;12.98;;;;;;;;;;5015568;28;20083;-91
2022/11/15 09:04:22;;;;;;;20.23;11.93;;;;;;;;;;5026089;28;20033;-90
2022/11/15 09:06:48;;;;;;;19.02;11.30;;;;;;;;;;5013307;28;20033;-90
2022/11/15 09:09:14;;;;;;;18.13;10.43;;;;;;;;;;5034013;28;20095;-90
2022/11/15 09:11:40;;;;;;;19.25;11.57;;;;;;;;;;5015432;28;20029;-88
2022/11/15 09:14:05;;;;;;;20.67;10.82;;;;;;;;;;5018170;28;20041;-90
2022/11/15 09:16:31;;;;;;;18.25;11.10;;;;;;;;;;5017659;28;20044;-90
2022/11/15 09:18:56;;;;;;;20.50;11.25;;;;;;;;;;5020893;28;20055;-94
2022/11/15 09:21:22;;;;;;;18.63;10.57;;;;;;;;;;5025119;28;20036;-91
2022/11/15 09:23:52;;;;;;;15.98;9.85;;;;;;;;;;5032419;28;20033;-88
2022/11/15 09:26:20;;;;;;;16.10;10.23;;;;;;;;;;5018479;28;20025;-90
2022/11/15 09:28:48;;;;;;;18.15;10.27;;;;;;;;;;5027759;28;20120;-89
2022/11/15 09:31:13;;;;;;;18.30;10.38;;;;;;;;;;5046552;28;20052;-93
2022/11/15 09:33:39;;;;;;;18.35;9.98;;;;;;;;;;5000553;28;20029;-90
2022/11/15 09:36:07;;;;;;;19.05;11.88;;;;;;;;;;4983785;28;20125;-90
2022/11/15 09:38:33;;;;;;;19.42;10.18;;;;;;;;;;4989054;28;20037;-89
2022/11/15 09:41:14;;;;;;;19.23;11.27;;;;;;;;;;4995843;28;20497;-89
2022/11/15 09:44:03;;;;;;;15.55;8.95;;;;;;;;;;5017998;28;20381;-89
2022/11/15 09:46:37;;;;;;;19.63;10.95;;;;;;;;;;5011713;28;20389;-90
2022/11/15 09:49:03;;;;;;;16.42;10.43;;;;;;;;;;4983456;28;20037;-88
2022/11/15 09:51:49;;;;;;;17.98;10.40;;;;;;;;;;5005732;28;20049;-88
2022/11/15 09:54:20;;;;;;;16.88;10.02;;;;;;;;;;5010684;28;20040;-88
2022/11/15 09:56:46;;;;;;;19.08;10.35;;;;;;;;;;5010386;28;20041;-88
2022/11/15 09:59:36;;;;;;;16.88;9.55;;;;;;;;;;4996067;28;20448;-89
2022/11/15 10:02:07;;;;;;;15.98;10.27;;;;;;;;;;5009795;28;20038;-95
2022/11/15 10:04:34;;;;;;;17.80;10.43;;;;;;;;;;5012888;28;20029;-93
2022/11/15 10:07:02;;;;;;;18.60;10.63;;;;;;;;;;5026749;28;20396;-91
2022/11/15 10:09:35;;;;;;;16.65;9.80;;;;;;;;;;5033717;28;20048;-91
2022/11/15 10:12:00;;;;;;;15.93;9.95;;;;;;;;;;5026709;28;20033;-91
2022/11/15 10:14:27;;;;;;;16.48;9.93;;;;;;;;;;5030203;28;20056;-91
2022/11/15 10:17:28;;;;;;;15.43;9.40;;;;;;;;;;5029217;28;20032;-88
2022/11/15 10:20:06;;;;;;;15.88;8.90;;;;;;;;;;5018262;28;20566;-91
2022/11/15 10:22:50;;;;;;;;;;;;;;;;;;5028788;28;20056;-90
2022/11/15 10:25:22;;;;;;;14.30;9.00;;;;;;;;;;5030489;28;19913;-89
2022/11/15 10:28:21;;;;;;;17.55;9.57;;;;;;;;;;5029057;28;20048;-92
2022/11/15 10:30:52;;;;;;;14.63;9.00;;;;;;;;;;4996531;28;20051;-91
2022/11/15 10:33:34;;;;;;;18.30;10.30;;;;;;;;;;5027383;28;20868;-91
2022/11/15 10:36:08;;;;;;;18.10;10.05;;;;;;;;;;5044322;28;20037;-90
2022/11/15 10:38:48;;;;;;;17.60;9.32;;;;;;;;;;5045409;28;20080;-91
2022/11/15 10:41:14;;;;;;;15.27;9.48;;;;;;;;;;5029879;28;20187;-90
2022/11/15 10:43:40;;;;;;;14.82;8.98;;;;;;;;;;5029376;28;20029;-88
2022/11/15 10:46:24;;;;;;;15.40;8.98;;;;;;;;;;5017089;28;20103;-89
2022/11/15 10:48:49;;;;;;;15.57;9.23;;;;;;;;;;5003340;28;20091;-90
2022/11/15 10:51:27;;;;;;;16.13;9.13;;;;;;;;;;5002915;28;20815;-90
2022/11/15 10:53:57;;;;;;;14.75;9.00;;;;;;;;;;5030104;28;20033;-83
2022/11/15 10:56:26;;;;;;;14.52;9.40;;;;;;;;;;5014756;28;20137;-88
2022/11/15 10:58:58;;;;;;;16.33;9.55;;;;;;;;;;5005862;28;20040;-88
2022/11/15 11:01:31;;;;;;;15.80;8.75;;;;;;;;;;5018667;28;20132;-89
2022/11/15 11:04:07;;;;;;;16.90;9.50;;;;;;;;;;5016910;28;20104;-91
2022/11/15 11:06:50;;;;;;;14.57;8.75;;;;;;;;;;5049778;28;20037;-88
2022/11/15 11:09:37;;;;;;;14.75;8.70;;;;;;;;;;5015733;28;20475;-89
2022/11/15 11:12:05;;;;;;;15.27;8.55;;;;;;;;;;5014337;28;20048;-89
2022/11/15 11:14:35;;;;;;;13.45;7.95;;;;;;;;;;5026328;28;20146;-89
2022/11/15 11:17:27;;;;;;;14.55;8.65;;;;;;;;;;5011734;28;20125;-89
2022/11/15 11:20:18;;;;;;;13.50;8.50;;;;;;;;;;5028316;28;20509;-88
2022/11/15 11:23:08;;;;;;;14.38;8.32;;;;;;;;;;5009055;28;20034;-83
2022/11/15 11:25:58;;;;;;;13.93;8.20;;;;;;;;;;5016866;28;20484;-84
2022/11/15 11:28:45;;;;;;;14.85;9.13;;;;;;;;;;4990349;28;20121;-84
2022/11/15 11:31:26;;;;;;;14.68;8.38;;;;;;;;;;5024852;28;20044;-88
2022/11/15 11:34:33;;;;;;;13.88;8.10;;;;;;;;;;5034421;28;20038;-89
2022/11/15 11:37:04;;;;;;;13.88;8.13;;;;;;;;;;4982447;28;20056;-88
2022/11/15 11:40:01;;;;;;;13.93;8.27;;;;;;;;;;5029301;28;20042;-88
2022/11/15 11:42:47;;;;;;;12.25;7.35;;;;;;;;;;5010772;28;20497;-88
2022/11/15 11:45:24;;;;;;;12.85;7.68;;;;;;;;;;5026000;28;20029;-86
2022/11/15 11:48:04;;;;;;;12.30;7.45;;;;;;;;;;5027745;28;20038;-87
2022/11/15 11:50:31;;;;;;;13.00;7.82;;;;;;;;;;5031824;28;20033;-86
2022/11/15 11:53:20;;;;;;;12.27;7.60;;;;;;;;;;5001421;28;20033;-87
2022/11/15 11:55:49;;;;;;;12.32;7.15;;;;;;;;;;5011025;28;20073;-87
2022/11/15 11:58:21;;;;;;;11.15;7.13;;;;;;;;;;5009184;28;20103;-87
2022/11/15 12:01:08;;;;;;;10.13;6.40;;;;;;;;;;5014503;28;20913;-89
2022/11/15 12:03:49;;;;;;;11.07;6.80;;;;;;;;;;5005564;28;20037;-86
2022/11/15 12:06:23;;;;;;;10.00;6.03;;;;;;;;;;5007987;28;20065;-85
2022/11/15 12:08:53;;;;;;;10.52;5.97;;;;;;;;;;5027974;28;20046;-84
2022/11/15 12:11:29;;;;;;;8.38;5.82;;;;;;;;;;5025621;28;20041;-84
2022/11/15 12:13:59;;;;;;;9.40;6.20;;;;;;;;;;5021839;28;20056;-85
2022/11/15 12:16:29;;;;;;;9.52;6.50;;;;;;;;;;5029103;28;20045;-85
2022/11/15 12:18:57;;;;;;;9.27;6.20;;;;;;;;;;4999043;28;20492;-85
2022/11/15 12:21:36;;;;;;;11.80;7.70;;;;;;;;;;5011228;28;20368;-84
2022/11/15 12:24:06;;;;;;;9.15;5.32;;;;;;;;;;5046160;28;20038;-85
2022/11/15 12:26:37;;;;;;;8.95;5.63;;;;;;;;;;5024032;28;20165;-86
2022/11/15 12:29:24;;;;;;;9.20;5.75;;;;;;;;;;5030206;28;20067;-86
2022/11/15 12:31:52;;;;;;;9.18;5.30;;;;;;;;;;5005303;28;20539;-85
2022/11/15 12:34:26;;;;;;;9.25;5.40;;;;;;;;;;5014491;28;20026;-86
2022/11/15 12:36:52;;;;;;;8.35;5.72;;;;;;;;;;5023489;28;20073;-85
2022/11/15 12:39:18;;;;;;;10.48;6.07;;;;;;;;;;4994346;28;20062;-86
2022/11/15 12:42:01;;;;;;;10.07;6.03;;;;;;;;;;5002313;28;20034;-85
2022/11/15 12:44:38;;;;;;;10.18;5.80;;;;;;;;;;5027189;28;20041;-85
2022/11/15 12:47:13;;;;;;;9.77;6.22;;;;;;;;;;5014427;28;20042;-86
2022/11/15 12:49:38;;;;;;;8.70;5.63;;;;;;;;;;4997452;28;20127;-86
2022/11/15 12:52:06;;;;;;;9.45;5.68;;;;;;;;;;4996406;28;20069;-88
2022/11/15 12:54:32;;;;;;;11.57;5.60;;;;;;;;;;5003603;28;20045;-84
2022/11/15 12:57:03;;;;;;;9.57;5.75;;;;;;;;;;5009104;28;20519;-83
2022/11/15 12:59:58;;;;;;;10.35;5.63;;;;;;;;;;5011840;28;20513;-83
2022/11/15 13:02:23;;;;;;;14.70;5.80;;;;;;;;;;5028898;28;20041;-84
2022/11/15 13:04:50;;;;;;;9.10;5.57;;;;;;;;;;5027385;28;20052;-83
2022/11/15 13:07:40;;;;;;;10.07;5.50;;;;;;;;;;5024246;28;20083;-85
2022/11/15 13:10:30;;;;;;;10.15;5.47;;;;;;;;;;5014021;28;20501;-85
2022/11/15 13:13:01;;;;;;;10.43;5.50;;;;;;;;;;5009329;28;20033;-85
2022/11/15 13:15:32;;;;;;;11.50;5.70;;;;;;;;;;5005620;28;20038;-85
2022/11/15 13:17:59;;;;;;;9.35;5.50;;;;;;;;;;5002789;28;20033;-88
2022/11/15 13:20:30;;;;;;;9.90;5.25;;;;;;;;;;5008521;28;20168;-86
2022/11/15 13:23:07;;;;;;;10.35;5.30;;;;;;;;;;4980002;28;20064;-85
2022/11/15 13:26:10;;;;;;;9.73;5.93;;;;;;;;;;4993839;28;20377;-85
2022/11/15 13:28:38;;;;;;;8.48;5.30;;;;;;;;;;5007179;28;20141;-85
2022/11/15 13:31:24;;;;;;;9.48;5.80;;;;;;;;;;5006643;28;20173;-85
2022/11/15 13:33:50;;;;;;;8.73;5.25;;;;;;;;;;5007979;28;20038;-84
2022/11/15 13:36:23;;;;;;;8.80;5.70;;;;;;;;;;4972327;28;20029;-86
2022/11/15 13:38:56;;;;;;;9.35;5.60;;;;;;;;;;5028525;28;20167;-84
2022/11/15 13:41:30;;;;;;;9.43;6.10;;;;;;;;;;5014108;28;20377;-85
2022/11/15 13:43:57;;;;;;;9.63;6.28;;;;;;;;;;5043118;28;20487;-84
2022/11/15 13:46:43;;;;;;;9.23;5.57;;;;;;;;;;5029206;28;20484;-83
2022/11/15 13:49:12;;;;;;;10.38;6.57;;;;;;;;;;4972022;28;20715;-86
2022/11/15 13:51:50;;;;;;;11.73;6.45;;;;;;;;;;4935541;28;20038;-86
2022/11/15 13:54:28;;;;;;;9.98;6.00;;;;;;;;;;4952371;28;20037;-86
2022/11/15 13:56:57;;;;;;;11.48;6.95;;;;;;;;;;4953341;28;20574;-87
2022/11/15 13:59:27;;;;;;;11.18;6.40;;;;;;;;;;4915400;28;20867;-85
2022/11/15 14:01:54;;;;;;;11.75;6.53;;;;;;;;;;4937354;28;20529;-86
2022/11/15 14:04:23;;;;;;;10.57;5.60;;;;;;;;;;4954695;28;20159;-83
2022/11/15 14:06:56;;;;;;;12.02;6.78;;;;;;;;;;4949256;28;20050;-82
2022/11/15 14:09:34;;;;;;;17.77;10.10;;;;;;;;;;4925912;28;20054;-83
2022/11/15 14:12:00;;;;;;;12.82;7.97;;;;;;;;;;4966063;28;20109;-84
2022/11/15 14:14:47;;;;;;;10.95;6.47;;;;;;;;;;4927303;28;20102;-83
2022/11/15 14:17:28;;;;;;;11.95;7.53;;;;;;;;;;4916890;29;20044;-84
2022/11/15 14:19:56;;;;;;;11.73;6.60;;;;;;;;;;4914542;29;20049;-84
2022/11/15 14:22:26;;;;;;;11.40;6.97;;;;;;;;;;4898654;29;20047;-84
2022/11/15 14:25:41;;;;;;;14.88;7.20;;;;;;;;;;4913904;29;20487;-84
2022/11/15 14:28:12;;;;;;;12.45;7.65;;;;;;;;;;4983857;28;20420;-83
2022/11/15 14:30:39;;;;;;;13.20;8.18;;;;;;;;;;4968403;28;20487;-84
2022/11/15 14:33:37;;;;;;;16.67;9.48;;;;;;;;;;4972899;28;20045;-83
2022/11/15 14:36:22;;;;;;;12.27;7.47;;;;;;;;;;4938938;28;20101;-86
2022/11/15 14:38:47;;;;;;;13.23;7.88;;;;;;;;;;4970409;28;20157;-84
2022/11/15 14:41:19;;;;;;;13.25;7.75;;;;;;;;;;4959158;28;20113;-84
2022/11/15 14:43:47;;;;;;;12.63;7.45;;;;;;;;;;4972875;28;20174;-84
2022/11/15 14:46:12;;;;;;;14.07;7.97;;;;;;;;;;4959323;28;20030;-84
2022/11/15 14:48:37;;;;;;;13.68;8.18;;;;;;;;;;4964784;28;20053;-85
2022/11/15 14:51:03;;;;;;;14.07;7.95;;;;;;;;;;4972599;28;20512;-85
2022/11/15 14:53:28;;;;;;;19.05;10.25;;;;;;;;;;4968085;28;20041;-83
2022/11/15 14:55:57;;;;;;;15.20;9.30;;;;;;;;;;5017520;28;20080;-83
2022/11/15 14:58:22;;;;;;;15.45;8.70;;;;;;;;;;5007752;28;20559;-83